Time;durP1;ratioP1;P1;durP2;ratioP2;P2;SDS_P1;SDS_P2;PMS_P1;PMS_P2;Temp;Humidity;BMP_temperature;BMP_pressure;BME280_temperature;BME280_humidity;BME280_pressure;Samples;Min_cycle;Max_cycle;Signal;HPM_P1;HPM_P2
2022/08/21 00:03:20;;;;;;;3.23;1.67;;;27.80;99.90;;;;;;6210683;23;20184;-93
2022/08/21 00:06:06;;;;;;;2.10;1.77;;;28.00;99.90;;;;;;6212638;23;20165;-93
2022/08/21 00:08:43;;;;;;;1.97;1.80;;;28.20;99.90;;;;;;6213826;23;20177;-92
2022/08/21 00:11:18;;;;;;;2.40;1.80;;;28.10;99.90;;;;;;6204337;23;20228;-94
2022/08/21 00:13:50;;;;;;;2.83;1.73;;;28.50;99.90;;;;;;6203141;23;20172;-93
2022/08/21 00:16:21;;;;;;;3.47;1.80;;;28.60;99.90;;;;;;6195970;23;20177;-93
2022/08/21 00:19:06;;;;;;;2.10;1.80;;;28.10;99.90;;;;;;6202215;23;20246;-93
2022/08/21 00:21:42;;;;;;;2.60;1.80;;;27.80;99.90;;;;;;6200954;23;20205;-92
2022/08/21 00:24:14;;;;;;;2.53;1.83;;;27.90;99.90;;;;;;6192517;23;20184;-93
2022/08/21 00:26:48;;;;;;;2.90;1.80;;;27.80;99.90;;;;;;6192989;23;20177;-92
2022/08/21 00:29:19;;;;;;;4.40;1.80;;;27.80;99.90;;;;;;6194737;23;20197;-93
2022/08/21 00:31:50;;;;;;;3.97;1.90;;;28.10;99.90;;;;;;6198926;23;20228;-93
2022/08/21 00:34:23;;;;;;;2.80;2.00;;;28.30;99.90;;;;;;6202624;23;20181;-92
2022/08/21 00:36:56;;;;;;;2.60;2.00;;;28.00;99.90;;;;;;6205839;23;20187;-94
2022/08/21 00:39:37;;;;;;;4.53;2.20;;;27.90;99.90;;;;;;6205863;23;20157;-94
2022/08/21 00:42:14;;;;;;;4.20;2.30;;;28.00;99.90;;;;;;6203028;23;20216;-93
2022/08/21 00:44:46;;;;;;;4.07;2.10;;;28.00;99.90;;;;;;6209929;23;20192;-93
2022/08/21 00:47:19;;;;;;;4.20;2.03;;;27.80;99.90;;;;;;6211224;23;20177;-92
2022/08/21 00:55:42;;;;;;;3.70;2.30;;;27.40;99.90;;;;;;6206725;23;20201;-92
2022/08/21 01:01:34;;;;;;;2.63;2.30;;;27.60;99.90;;;;;;6203679;23;20211;-93
2022/08/21 01:06:58;;;;;;;3.60;2.37;;;27.30;99.90;;;;;;6192989;23;20193;-92
2022/08/21 01:09:36;;;;;;;2.63;2.20;;;27.40;99.90;;;;;;6195074;23;20166;-92
2022/08/21 01:12:21;;;;;;;4.30;2.40;;;27.60;99.90;;;;;;6182902;23;20264;-92
2022/08/21 01:15:07;;;;;;;3.20;2.13;;;28.10;99.90;;;;;;6191811;23;20620;-92
2022/08/21 01:17:41;;;;;;;4.93;2.37;;;28.30;99.90;;;;;;6193924;23;20665;-92
2022/08/21 01:20:17;;;;;;;4.60;2.50;;;28.70;99.90;;;;;;6191434;23;20587;-92
2022/08/21 01:22:52;;;;;;;2.50;2.30;;;28.70;99.90;;;;;;6189414;23;20204;-93
2022/08/21 01:25:23;;;;;;;2.40;2.20;;;28.60;99.90;;;;;;6190957;23;20623;-92
2022/08/21 01:27:55;;;;;;;2.80;2.40;;;28.50;99.90;;;;;;6196262;23;20177;-93
2022/08/21 01:30:32;;;;;;;2.83;2.50;;;28.60;99.90;;;;;;6166287;23;20578;-92
2022/08/21 01:36:14;;;;;;;3.27;2.23;;;28.20;99.90;;;;;;6201368;23;20205;-94
2022/08/21 01:45:00;;;;;;;2.97;2.67;;;26.40;99.90;;;;;;6192438;23;20196;-95
2022/08/21 01:50:19;;;;;;;2.97;2.47;;;26.00;99.90;;;;;;6202923;23;20225;-93
2022/08/21 01:53:05;;;;;;;3.67;2.57;;;26.00;99.90;;;;;;6199389;23;20176;-93
2022/08/21 01:55:40;;;;;;;4.33;2.70;;;26.00;99.90;;;;;;6179340;23;20180;-93
2022/08/21 01:58:27;;;;;;;2.90;1.87;;;25.90;99.90;;;;;;6207283;23;20173;-95
2022/08/21 02:03:48;;;;;;;3.00;2.30;;;25.20;99.90;;;;;;6197000;23;20215;-94
2022/08/21 02:09:11;;;;;;;3.03;2.60;;;25.00;99.90;;;;;;6207649;23;20184;-94
2022/08/21 02:14:44;;;;;;;5.27;2.70;;;24.90;99.90;;;;;;6199764;23;20181;-95
2022/08/21 02:17:15;;;;;;;3.43;2.83;;;24.80;99.90;;;;;;6191927;23;20567;-95
2022/08/21 02:19:47;;;;;;;2.67;2.47;;;24.70;99.90;;;;;;6189840;23;20177;-95
2022/08/21 02:22:18;;;;;;;7.73;2.80;;;24.70;99.90;;;;;;6189365;23;20578;-95
2022/08/21 02:24:50;;;;;;;3.93;2.93;;;24.70;99.90;;;;;;6201218;23;20224;-94
2022/08/21 02:27:24;;;;;;;2.73;2.43;;;24.70;99.90;;;;;;6193694;23;20607;-95
2022/08/21 02:30:16;;;;;;;3.67;2.53;;;24.60;99.90;;;;;;6196769;23;20191;-95
2022/08/21 02:32:49;;;;;;;2.73;2.53;;;24.60;99.90;;;;;;6191111;23;20682;-94
2022/08/21 02:35:22;;;;;;;2.97;2.77;;;24.40;99.90;;;;;;6191993;23;20622;-94
2022/08/21 02:38:11;;;;;;;4.10;3.00;;;24.20;99.90;;;;;;6200907;23;20177;-93
2022/08/21 02:40:44;;;;;;;3.20;2.90;;;24.20;99.90;;;;;;6192952;23;20208;-94
2022/08/21 02:43:32;;;;;;;3.73;3.07;;;24.10;99.90;;;;;;6198410;23;20636;-94
2022/08/21 02:46:23;;;;;;;3.30;2.70;;;24.10;99.90;;;;;;6199461;23;20197;-94
2022/08/21 02:48:56;;;;;;;4.67;3.13;;;24.10;99.90;;;;;;6191126;23;20209;-94
2022/08/21 02:51:27;;;;;;;3.27;2.77;;;24.00;99.90;;;;;;6201180;23;20177;-94
2022/08/21 02:53:59;;;;;;;3.87;2.90;;;23.80;99.90;;;;;;6207326;23;20185;-94
2022/08/21 02:56:31;;;;;;;3.47;2.53;;;23.80;99.90;;;;;;6205985;23;20188;-93
2022/08/21 02:59:03;;;;;;;4.10;2.77;;;23.70;99.90;;;;;;6193524;23;20177;-95
2022/08/21 03:01:39;;;;;;;4.47;2.70;;;23.70;99.90;;;;;;6194787;23;20947;-94
2022/08/21 03:04:13;;;;;;;5.63;2.90;;;23.60;99.90;;;;;;6198144;23;20180;-94
2022/08/21 03:12:37;;;;;;;5.10;2.90;;;23.40;99.90;;;;;;6197433;23;20227;-95
2022/08/21 03:15:13;;;;;;;2.80;2.40;;;23.30;99.90;;;;;;6193098;23;20184;-94
2022/08/21 03:17:48;;;;;;;2.90;2.60;;;23.10;99.90;;;;;;6195938;23;20666;-95
2022/08/21 03:20:23;;;;;;;5.53;2.70;;;23.00;99.90;;;;;;6196280;23;20165;-95
2022/08/21 03:22:55;;;;;;;5.73;2.90;;;22.90;99.90;;;;;;6198728;23;20269;-95
2022/08/21 03:25:47;;;;;;;4.47;2.90;;;22.80;99.90;;;;;;6195213;23;20216;-94
2022/08/21 03:28:25;;;;;;;3.87;2.90;;;22.80;99.90;;;;;;6199457;23;20165;-94
2022/08/21 03:30:56;;;;;;;4.37;2.83;;;22.70;99.90;;;;;;6200474;23;20227;-95
2022/08/21 03:33:35;;;;;;;3.40;3.10;;;22.60;99.90;;;;;;6200118;23;20193;-95
2022/08/21 03:36:12;;;;;;;4.07;3.70;;;22.50;99.90;;;;;;6201387;23;20165;-94
2022/08/21 03:38:45;;;;;;;5.23;4.73;;;22.50;99.90;;;;;;6202461;23;20197;-94
2022/08/21 03:41:18;;;;;;;7.27;4.07;;;22.40;99.90;;;;;;6198355;23;20206;-94
2022/08/21 03:43:58;;;;;;;6.23;3.93;;;22.30;99.90;;;;;;6201362;23;20204;-95
2022/08/21 03:46:31;;;;;;;6.60;4.40;;;22.30;99.90;;;;;;6190592;23;20209;-95
2022/08/21 03:52:18;;;;;;;5.70;4.17;;;22.20;99.90;;;;;;6192403;23;20204;-94
2022/08/21 03:54:50;;;;;;;4.40;3.50;;;22.10;99.90;;;;;;6190598;23;20180;-94
2022/08/21 03:57:21;;;;;;;6.07;4.43;;;22.00;99.90;;;;;;6192185;23;20165;-95
2022/08/21 03:59:53;;;;;;;4.63;3.37;;;22.00;99.90;;;;;;6191987;23;20213;-94
2022/08/21 04:14:02;;;;;;;4.40;3.70;;;21.80;99.90;;;;;;6233782;23;20176;-94
2022/08/21 04:22:38;;;;;;;4.20;3.40;;;21.50;99.90;;;;;;6233549;23;20270;-93
2022/08/21 04:28:38;;;;;;;4.93;3.20;;;21.40;99.90;;;;;;6223457;23;20682;-94
2022/08/21 04:31:10;;;;;;;5.60;2.90;;;21.40;99.90;;;;;;6222290;23;20571;-94
2022/08/21 04:33:42;;;;;;;5.03;3.07;;;21.40;99.90;;;;;;6220412;23;20705;-95
2022/08/21 04:36:14;;;;;;;3.33;3.03;;;21.30;99.90;;;;;;6220757;23;20254;-94
2022/08/21 04:41:52;;;;;;;4.70;2.70;;;21.20;99.90;;;;;;6233812;23;20183;-94
2022/08/21 04:44:24;;;;;;;3.80;3.10;;;21.10;99.90;;;;;;6228399;23;20222;-94
2022/08/21 04:46:57;;;;;;;4.27;3.00;;;21.10;99.90;;;;;;6238679;23;20249;-94
2022/08/21 04:49:43;;;;;;;3.00;2.80;;;21.10;99.90;;;;;;6229551;23;20181;-93
2022/08/21 04:52:18;;;;;;;2.93;2.70;;;21.20;99.90;;;;;;6228806;23;20176;-94
2022/08/21 04:54:54;;;;;;;3.10;2.80;;;21.20;99.90;;;;;;6230799;23;20183;-94
2022/08/21 04:57:33;;;;;;;3.90;2.47;;;21.10;99.90;;;;;;6241853;23;20172;-94
2022/08/21 05:03:22;;;;;;;3.20;2.70;;;21.10;99.90;;;;;;6243216;23;20219;-94
2022/08/21 05:05:53;;;;;;;2.40;2.27;;;21.10;99.90;;;;;;6243856;23;20278;-94
2022/08/21 05:08:27;;;;;;;5.50;2.73;;;21.00;99.90;;;;;;6243972;23;20172;-93
2022/08/21 05:13:58;;;;;;;2.73;2.40;;;21.00;99.90;;;;;;6242178;23;20223;-94
2022/08/21 05:16:29;;;;;;;2.40;2.20;;;20.90;99.90;;;;;;6243405;23;20191;-92
2022/08/21 05:19:06;;;;;;;2.60;2.30;;;20.90;99.90;;;;;;6243447;23;20294;-94
2022/08/21 05:21:41;;;;;;;2.53;2.30;;;20.90;99.90;;;;;;6242390;23;20165;-94
2022/08/21 05:24:13;;;;;;;2.77;2.57;;;20.80;99.90;;;;;;6243424;23;20258;-94
2022/08/21 05:26:45;;;;;;;3.33;2.43;;;20.80;99.90;;;;;;6242646;23;20176;-94
2022/08/21 05:29:19;;;;;;;2.63;2.43;;;20.80;99.90;;;;;;6223372;23;20176;-94
2022/08/21 05:31:51;;;;;;;3.53;2.03;;;20.80;99.90;;;;;;6222399;23;20234;-94
2022/08/21 05:34:23;;;;;;;2.70;2.27;;;20.70;99.90;;;;;;6221968;23;20199;-94
2022/08/21 05:36:55;;;;;;;2.43;2.23;;;20.60;99.90;;;;;;6222676;23;20204;-93
2022/08/21 05:39:27;;;;;;;2.53;2.33;;;20.60;99.90;;;;;;6222070;23;20681;-94
2022/08/21 05:42:19;;;;;;;3.97;2.40;;;20.60;99.90;;;;;;6223737;23;20176;-94
2022/08/21 05:44:54;;;;;;;3.33;2.43;;;20.60;99.90;;;;;;6233235;23;20637;-93
2022/08/21 05:47:33;;;;;;;2.40;2.20;;;20.60;99.90;;;;;;6230304;23;20509;-91
2022/08/21 05:50:07;;;;;;;2.73;2.30;;;20.70;99.90;;;;;;6235996;23;20239;-94
2022/08/21 05:52:38;;;;;;;3.27;2.37;;;20.70;99.90;;;;;;6226599;23;20176;-94
2022/08/21 05:55:10;;;;;;;2.80;2.40;;;20.70;99.90;;;;;;6230728;23;20176;-95
2022/08/21 05:57:42;;;;;;;2.63;2.13;;;20.70;99.90;;;;;;6240042;23;20160;-94
2022/08/21 06:00:18;;;;;;;3.27;2.63;;;20.70;99.90;;;;;;6240379;23;20211;-94
2022/08/21 06:02:50;;;;;;;3.43;2.53;;;20.70;99.90;;;;;;6234757;23;20176;-94
2022/08/21 06:05:21;;;;;;;3.63;2.37;;;20.70;99.90;;;;;;6226083;23;20164;-94
2022/08/21 06:08:07;;;;;;;3.37;2.47;;;20.70;99.90;;;;;;6221746;23;20191;-93
2022/08/21 06:10:39;;;;;;;2.40;2.20;;;20.60;99.90;;;;;;6221586;23;20575;-94
2022/08/21 06:13:10;;;;;;;4.47;2.47;;;20.60;99.90;;;;;;6220289;23;20180;-95
2022/08/21 06:15:44;;;;;;;2.47;2.27;;;20.60;99.90;;;;;;6222675;23;20172;-94
2022/08/21 06:18:15;;;;;;;2.80;2.23;;;20.60;99.90;;;;;;6221528;23;20497;-93
2022/08/21 06:20:47;;;;;;;2.20;2.00;;;20.70;99.90;;;;;;6219853;23;20177;-94
2022/08/21 06:23:19;;;;;;;2.20;2.00;;;20.70;99.90;;;;;;6221169;23;20192;-94
2022/08/21 06:26:04;;;;;;;3.63;2.40;;;20.70;99.90;;;;;;6220740;23;20176;-94
2022/08/21 06:28:36;;;;;;;3.13;2.20;;;20.70;99.90;;;;;;6220255;23;20176;-93
2022/08/21 06:31:17;;;;;;;2.40;2.20;;;20.70;99.90;;;;;;6221181;23;20160;-94
2022/08/21 06:33:49;;;;;;;2.63;2.10;;;20.70;99.90;;;;;;6220113;23;20169;-94
2022/08/21 06:36:22;;;;;;;1.87;1.77;;;20.70;99.90;;;;;;6220320;23;20177;-94
2022/08/21 06:38:53;;;;;;;3.30;2.30;;;20.70;99.90;;;;;;6222066;23;20204;-93
2022/08/21 06:41:27;;;;;;;2.23;2.10;;;20.70;99.90;;;;;;6221702;23;20236;-94
2022/08/21 06:43:59;;;;;;;2.33;1.90;;;20.70;99.90;;;;;;6219510;23;20205;-94
2022/08/21 06:46:33;;;;;;;2.50;1.93;;;20.70;99.90;;;;;;6221210;23;20183;-94
2022/08/21 06:49:07;;;;;;;3.90;2.10;;;20.70;99.90;;;;;;6221820;23;20598;-93
2022/08/21 06:51:52;;;;;;;2.00;1.80;;;20.70;99.90;;;;;;6223432;23;20177;-94
2022/08/21 06:54:23;;;;;;;3.00;2.10;;;20.70;99.90;;;;;;6219728;23;20187;-93
2022/08/21 06:56:55;;;;;;;4.50;2.10;;;20.70;99.90;;;;;;6219519;23;20234;-94
2022/08/21 06:59:28;;;;;;;1.80;1.70;;;20.70;99.90;;;;;;6221914;23;20188;-94
2022/08/21 07:02:02;;;;;;;4.60;1.93;;;20.70;99.90;;;;;;6220178;23;20181;-94
2022/08/21 07:04:35;;;;;;;3.43;1.63;;;20.70;99.90;;;;;;6222127;23;20197;-94
2022/08/21 07:07:06;;;;;;;2.93;1.90;;;20.70;99.90;;;;;;6219419;23;20538;-94
2022/08/21 07:09:38;;;;;;;2.77;1.90;;;20.60;99.90;;;;;;6227604;23;20191;-94
2022/08/21 07:12:10;;;;;;;2.47;1.90;;;20.30;99.90;;;;;;6226350;23;20164;-95
2022/08/21 07:14:42;;;;;;;3.00;2.13;;;20.30;99.90;;;;;;6224985;23;20168;-93
2022/08/21 07:17:15;;;;;;;3.13;2.10;;;20.30;99.90;;;;;;6221990;23;20239;-94
2022/08/21 07:19:47;;;;;;;2.83;1.73;;;20.30;99.90;;;;;;6219548;23;20645;-94
2022/08/21 07:22:20;;;;;;;2.97;2.20;;;20.30;99.90;;;;;;6219351;23;20180;-94
2022/08/21 07:24:52;;;;;;;1.90;1.80;;;20.30;99.90;;;;;;6219709;23;20715;-94
2022/08/21 07:27:24;;;;;;;2.33;1.90;;;20.30;99.90;;;;;;6222151;23;20211;-93
2022/08/21 07:29:56;;;;;;;2.10;1.90;;;20.30;99.90;;;;;;6222534;23;20172;-94
2022/08/21 07:32:30;;;;;;;2.53;2.20;;;20.30;99.90;;;;;;6218191;23;20568;-93
2022/08/21 07:35:01;;;;;;;3.57;2.07;;;20.30;99.90;;;;;;6219704;23;20576;-94
2022/08/21 07:37:33;;;;;;;2.13;1.93;;;20.30;99.90;;;;;;6219730;23;20179;-94
2022/08/21 07:40:05;;;;;;;2.63;2.10;;;20.30;99.90;;;;;;6218762;23;20161;-93
2022/08/21 07:42:40;;;;;;;2.40;2.20;;;20.30;99.90;;;;;;6218265;23;20208;-94
2022/08/21 07:45:13;;;;;;;2.97;2.03;;;20.30;99.90;;;;;;6218913;23;20206;-94
2022/08/21 07:47:46;;;;;;;2.90;2.30;;;20.30;99.90;;;;;;6219040;23;20176;-95
2022/08/21 07:50:17;;;;;;;4.13;2.00;;;20.30;99.90;;;;;;6218825;23;20183;-94
2022/08/21 07:52:50;;;;;;;2.10;1.90;;;20.30;99.90;;;;;;6216667;23;20176;-94
2022/08/21 07:55:23;;;;;;;5.33;1.80;;;20.10;99.90;;;;;;6219458;23;20176;-93
2022/08/21 07:57:55;;;;;;;2.43;1.80;;;20.00;99.90;;;;;;6219182;23;20495;-94
2022/08/21 08:00:29;;;;;;;1.63;1.53;;;19.90;99.90;;;;;;6219631;23;20168;-94
2022/08/21 08:03:02;;;;;;;1.50;1.30;;;19.90;99.90;;;;;;6217419;23;20172;-94
2022/08/21 08:05:36;;;;;;;1.53;1.43;;;19.90;99.90;;;;;;6219409;23;20579;-93
2022/08/21 08:08:08;;;;;;;1.40;1.30;;;20.00;99.90;;;;;;6218981;23;20649;-92
2022/08/21 08:10:40;;;;;;;2.40;1.30;;;20.00;99.90;;;;;;6220563;23;20493;-92
2022/08/21 08:13:13;;;;;;;2.63;1.30;;;19.90;99.90;;;;;;6219954;23;20234;-93
2022/08/21 08:15:44;;;;;;;1.80;1.70;;;19.80;99.90;;;;;;6221468;23;20188;-92
2022/08/21 08:18:19;;;;;;;2.00;1.33;;;19.80;99.90;;;;;;6221186;23;20180;-92
2022/08/21 08:20:49;;;;;;;1.50;1.40;;;19.80;99.90;;;;;;6221031;23;20230;-93
2022/08/21 08:23:22;;;;;;;1.47;1.37;;;19.80;99.90;;;;;;6220181;23;20172;-93
2022/08/21 08:25:54;;;;;;;2.40;1.30;;;19.80;99.90;;;;;;6224234;23;20204;-94
2022/08/21 08:28:25;;;;;;;1.33;1.23;;;19.80;99.90;;;;;;6222903;23;20168;-93
2022/08/21 08:30:57;;;;;;;1.23;1.20;;;19.80;99.90;;;;;;6219663;23;20246;-94
2022/08/21 08:33:30;;;;;;;1.40;1.30;;;19.70;99.90;;;;;;6219556;23;20184;-94
2022/08/21 08:36:02;;;;;;;1.20;1.10;;;19.80;99.90;;;;;;6219629;23;20181;-93
2022/08/21 08:38:37;;;;;;;1.30;1.00;;;19.80;99.90;;;;;;6221121;23;20187;-94
2022/08/21 08:41:14;;;;;;;0.97;0.97;;;19.70;99.90;;;;;;6221220;23;20237;-95
2022/08/21 08:43:52;;;;;;;1.00;0.90;;;19.60;99.90;;;;;;6220702;23;20192;-93
2022/08/21 08:46:30;;;;;;;1.10;1.00;;;19.50;99.90;;;;;;6220693;23;20214;-93
2022/08/21 08:49:08;;;;;;;1.33;0.90;;;19.50;99.90;;;;;;6220902;23;20234;-93
2022/08/21 08:51:46;;;;;;;0.80;0.80;;;19.50;99.90;;;;;;6219670;23;20180;-93
2022/08/21 08:54:31;;;;;;;1.60;0.97;;;19.40;99.90;;;;;;6220349;23;20176;-93
2022/08/21 08:57:03;;;;;;;1.50;0.90;;;19.40;99.90;;;;;;6220342;23;20176;-93
2022/08/21 08:59:42;;;;;;;1.03;0.80;;;19.40;99.90;;;;;;6220510;23;20176;-93
2022/08/21 09:02:15;;;;;;;0.90;0.90;;;19.30;99.90;;;;;;6219561;23;20196;-94
2022/08/21 09:04:50;;;;;;;1.57;0.90;;;19.30;99.90;;;;;;6221379;23;20200;-93
2022/08/21 09:07:31;;;;;;;0.80;0.80;;;19.20;99.90;;;;;;6220679;23;20238;-92
2022/08/21 09:10:13;;;;;;;0.97;0.90;;;19.20;99.90;;;;;;6220937;23;20615;-94
2022/08/21 09:12:54;;;;;;;0.70;0.70;;;19.20;99.90;;;;;;6220007;23;20211;-93
2022/08/21 09:15:32;;;;;;;0.80;0.80;;;19.10;99.90;;;;;;6220650;23;20172;-94
2022/08/21 09:18:34;;;;;;;1.10;0.80;;;19.10;99.90;;;;;;6221754;23;20266;-93
2022/08/21 09:21:16;;;;;;;0.70;0.70;;;19.10;99.90;;;;;;6222959;23;20183;-93
2022/08/21 09:23:57;;;;;;;0.70;0.70;;;19.00;99.90;;;;;;6220464;23;20633;-93
2022/08/21 09:26:34;;;;;;;2.60;0.90;;;19.10;99.90;;;;;;6221763;23;20270;-93
2022/08/21 09:29:07;;;;;;;0.60;0.60;;;19.00;99.90;;;;;;6221126;23;20250;-93
2022/08/21 09:31:39;;;;;;;0.70;0.70;;;19.00;99.90;;;;;;6221402;23;20199;-94
2022/08/21 09:34:13;;;;;;;1.13;0.73;;;19.00;99.90;;;;;;6219379;23;20177;-93
2022/08/21 09:36:49;;;;;;;0.70;0.70;;;19.00;99.90;;;;;;6223466;23;20196;-93
2022/08/21 09:39:28;;;;;;;1.47;0.93;;;19.10;99.90;;;;;;6222799;23;20590;-93
2022/08/21 09:42:02;;;;;;;1.90;0.80;;;19.00;99.90;;;;;;6221238;23;20180;-94
2022/08/21 09:44:39;;;;;;;1.20;0.80;;;19.10;99.90;;;;;;6222333;23;20178;-94
2022/08/21 09:47:12;;;;;;;0.70;0.70;;;19.00;99.90;;;;;;6221152;23;20203;-94
2022/08/21 09:49:44;;;;;;;0.63;0.63;;;18.90;99.90;;;;;;6223750;23;20203;-94
2022/08/21 09:52:23;;;;;;;1.30;0.87;;;18.90;99.90;;;;;;6219567;23;20732;-94
2022/08/21 09:54:57;;;;;;;1.20;0.93;;;18.90;99.90;;;;;;6221563;23;20176;-94
2022/08/21 09:57:39;;;;;;;1.00;0.87;;;18.90;99.90;;;;;;6208807;23;20247;-92
2022/08/21 10:00:26;;;;;;;2.97;0.83;;;18.80;99.90;;;;;;6192126;23;20181;-93
2022/08/21 10:03:09;;;;;;;0.80;0.80;;;18.80;99.90;;;;;;6190813;23;20235;-95
2022/08/21 10:05:42;;;;;;;0.93;0.80;;;18.80;99.90;;;;;;6191423;23;20493;-95
2022/08/21 10:08:24;;;;;;;0.80;0.80;;;18.90;99.90;;;;;;6192005;23;20260;-94
2022/08/21 10:11:04;;;;;;;0.83;0.83;;;18.80;99.90;;;;;;6194349;23;20211;-95
2022/08/21 10:14:05;;;;;;;0.80;0.77;;;18.80;99.90;;;;;;6211536;23;20169;-94
2022/08/21 10:16:46;;;;;;;0.80;0.80;;;18.80;99.90;;;;;;6212405;23;20165;-95
2022/08/21 10:19:27;;;;;;;0.90;0.90;;;18.80;99.90;;;;;;6212309;23;20176;-94
2022/08/21 10:22:13;;;;;;;1.27;0.90;;;18.80;99.90;;;;;;6182836;23;20204;-95
2022/08/21 10:24:54;;;;;;;0.83;0.80;;;18.80;99.90;;;;;;6190946;23;20684;-92
2022/08/21 10:27:34;;;;;;;2.03;1.10;;;18.80;99.90;;;;;;6190604;23;20196;-94
2022/08/21 10:30:10;;;;;;;0.70;0.70;;;18.80;99.90;;;;;;6165883;23;20173;-93
2022/08/21 10:33:11;;;;;;;1.10;0.80;;;18.80;99.90;;;;;;6189744;23;20176;-94
2022/08/21 10:35:50;;;;;;;1.20;1.10;;;18.70;99.90;;;;;;6190171;23;20196;-94
2022/08/21 10:38:44;;;;;;;1.00;1.00;;;18.70;99.90;;;;;;6190856;23;20165;-94
2022/08/21 10:41:56;;;;;;;1.30;1.20;;;18.60;99.90;;;;;;6189766;23;20255;-94
2022/08/21 10:44:58;;;;;;;1.20;1.10;;;18.60;99.90;;;;;;6191824;23;20173;-94
2022/08/21 10:47:34;;;;;;;1.20;1.10;;;18.60;99.90;;;;;;6191664;23;20208;-94
2022/08/21 10:50:14;;;;;;;1.33;1.10;;;18.60;99.90;;;;;;6190020;23;20180;-96
2022/08/21 10:53:02;;;;;;;1.53;1.30;;;18.60;99.90;;;;;;6189945;23;20232;-92
2022/08/21 10:55:37;;;;;;;1.10;1.00;;;18.50;99.90;;;;;;6191072;23;20169;-92
2022/08/21 10:58:13;;;;;;;3.53;1.07;;;18.50;99.90;;;;;;6190863;23;20268;-92
2022/08/21 11:00:50;;;;;;;1.07;1.00;;;18.50;99.90;;;;;;6192148;23;20479;-91
2022/08/21 11:03:29;;;;;;;1.53;1.30;;;18.50;99.90;;;;;;6192987;23;20176;-93
2022/08/21 11:06:06;;;;;;;1.30;1.20;;;18.40;99.90;;;;;;6192780;23;20654;-92
2022/08/21 11:08:42;;;;;;;1.30;1.20;;;18.40;99.90;;;;;;6174020;23;20173;-93
2022/08/21 11:11:22;;;;;;;1.20;1.10;;;18.30;99.90;;;;;;6209083;23;20180;-94
2022/08/21 11:14:04;;;;;;;2.40;1.10;;;18.40;99.90;;;;;;6208602;23;20169;-93
2022/08/21 11:16:40;;;;;;;1.93;1.20;;;18.40;99.90;;;;;;6197219;23;20710;-92
2022/08/21 11:19:17;;;;;;;1.77;1.40;;;18.40;99.90;;;;;;6190898;23;20203;-93
2022/08/21 11:21:55;;;;;;;1.33;1.23;;;18.40;99.90;;;;;;6191139;23;20251;-94
2022/08/21 11:24:38;;;;;;;1.63;1.53;;;18.30;99.90;;;;;;6193704;23;20247;-93
2022/08/21 11:27:16;;;;;;;1.57;1.20;;;18.30;99.90;;;;;;6165190;23;20260;-92
2022/08/21 11:29:54;;;;;;;1.50;1.40;;;18.30;99.90;;;;;;6192319;23;20646;-93
2022/08/21 11:32:53;;;;;;;1.40;1.30;;;18.30;99.90;;;;;;6194401;23;20215;-92
2022/08/21 11:35:34;;;;;;;2.73;1.47;;;18.40;99.90;;;;;;6191049;23;20252;-93
2022/08/21 11:38:23;;;;;;;1.40;1.30;;;18.40;99.90;;;;;;6203701;23;20184;-93
2022/08/21 11:41:24;;;;;;;1.43;1.30;;;18.50;99.90;;;;;;6210501;23;20180;-93
2022/08/21 11:44:03;;;;;;;2.80;1.47;;;18.50;99.90;;;;;;6211806;23;20177;-93
2022/08/21 11:46:46;;;;;;;1.37;1.20;;;18.50;99.90;;;;;;6214397;23;20200;-93
2022/08/21 11:49:32;;;;;;;1.70;1.27;;;18.50;99.90;;;;;;6189219;23;20164;-93
2022/08/21 11:52:13;;;;;;;1.53;1.10;;;18.50;99.90;;;;;;6213373;23;20169;-93
2022/08/21 11:54:48;;;;;;;2.50;1.30;;;18.40;99.90;;;;;;6214137;23;20195;-93
2022/08/21 11:57:25;;;;;;;1.57;1.13;;;18.40;99.90;;;;;;6213966;23;20187;-92
2022/08/21 12:00:00;;;;;;;1.20;1.10;;;18.40;99.90;;;;;;6213688;23;20160;-92
2022/08/21 12:02:38;;;;;;;1.13;1.13;;;18.40;99.90;;;;;;6202141;23;20176;-93
2022/08/21 12:05:13;;;;;;;1.90;1.00;;;18.40;99.90;;;;;;6201403;23;20172;-92
2022/08/21 12:07:46;;;;;;;1.30;1.00;;;18.40;99.90;;;;;;6196322;23;20196;-93
2022/08/21 12:10:20;;;;;;;1.70;1.27;;;18.40;99.90;;;;;;6196525;23;20246;-93
2022/08/21 12:12:52;;;;;;;1.30;1.20;;;18.40;99.90;;;;;;6196729;23;20176;-93
2022/08/21 12:15:30;;;;;;;1.13;1.03;;;18.40;99.90;;;;;;6195829;23;20192;-92
2022/08/21 12:18:05;;;;;;;1.27;1.10;;;18.40;99.90;;;;;;6195818;23;20176;-93
2022/08/21 12:20:45;;;;;;;1.10;1.00;;;18.40;99.90;;;;;;6195722;23;20180;-93
2022/08/21 12:23:30;;;;;;;1.30;1.17;;;18.50;99.90;;;;;;6194817;23;20191;-93
2022/08/21 12:26:26;;;;;;;1.00;1.00;;;18.50;99.90;;;;;;6191736;23;20184;-93
2022/08/21 12:29:17;;;;;;;1.30;1.20;;;18.50;99.90;;;;;;6149055;23;20244;-93
2022/08/21 12:31:58;;;;;;;2.00;1.20;;;18.40;99.90;;;;;;6193897;23;20172;-93
2022/08/21 12:34:51;;;;;;;3.23;1.50;;;18.40;99.90;;;;;;6197210;23;20173;-93
2022/08/21 12:37:28;;;;;;;1.20;1.10;;;18.40;99.90;;;;;;6194529;23;20177;-93
2022/08/21 12:40:02;;;;;;;1.33;1.23;;;18.30;99.90;;;;;;6193840;23;20180;-92
2022/08/21 12:42:39;;;;;;;1.37;1.27;;;18.30;99.90;;;;;;6192501;23;20238;-93
2022/08/21 12:45:19;;;;;;;1.10;1.07;;;18.30;99.90;;;;;;6194535;23;20185;-93
2022/08/21 12:47:58;;;;;;;1.30;1.20;;;18.30;99.90;;;;;;6194970;23;20196;-93
2022/08/21 12:50:37;;;;;;;1.63;1.33;;;18.30;99.90;;;;;;6194175;23;20177;-93
2022/08/21 12:53:14;;;;;;;2.40;1.30;;;18.40;99.90;;;;;;6193400;23;20280;-93
2022/08/21 12:55:50;;;;;;;1.30;1.10;;;18.20;99.90;;;;;;6192671;23;20177;-93
2022/08/21 12:58:23;;;;;;;2.10;1.53;;;18.20;99.90;;;;;;6179206;23;20204;-92
2022/08/21 13:00:57;;;;;;;1.73;1.23;;;18.20;99.90;;;;;;6195104;23;20184;-93
2022/08/21 13:03:30;;;;;;;1.13;1.03;;;18.20;99.90;;;;;;6191622;23;20188;-93
2022/08/21 13:06:06;;;;;;;1.93;1.20;;;18.30;99.90;;;;;;6195334;23;20173;-93
2022/08/21 13:08:39;;;;;;;1.30;1.20;;;18.30;99.90;;;;;;6192013;23;20204;-93
2022/08/21 13:11:19;;;;;;;2.07;1.40;;;18.30;99.90;;;;;;6194337;23;20273;-92
2022/08/21 13:14:06;;;;;;;1.50;1.20;;;18.40;99.90;;;;;;6190236;23;20251;-93
2022/08/21 13:16:39;;;;;;;1.30;1.10;;;18.30;99.90;;;;;;6191970;23;20181;-94
2022/08/21 13:19:20;;;;;;;2.20;1.37;;;18.30;99.90;;;;;;6192252;23;20165;-93
2022/08/21 13:21:55;;;;;;;1.90;1.20;;;18.30;99.90;;;;;;6191104;23;20215;-92
2022/08/21 13:24:29;;;;;;;1.43;1.13;;;18.30;99.90;;;;;;6192320;23;20224;-93
2022/08/21 13:27:28;;;;;;;1.40;1.20;;;18.40;99.90;;;;;;6191237;23;20204;-93
2022/08/21 13:30:10;;;;;;;1.53;1.07;;;18.40;99.90;;;;;;6193463;23;20233;-93
2022/08/21 13:32:46;;;;;;;1.43;1.20;;;18.40;99.90;;;;;;6193644;23;20188;-93
2022/08/21 13:35:21;;;;;;;1.27;1.17;;;18.40;99.90;;;;;;6192519;23;20176;-93
2022/08/21 13:37:56;;;;;;;1.53;1.23;;;18.30;99.90;;;;;;6194505;23;20231;-93
2022/08/21 13:40:32;;;;;;;1.50;1.30;;;18.30;99.90;;;;;;6193169;23;20192;-93
2022/08/21 13:43:04;;;;;;;1.37;1.27;;;18.40;99.90;;;;;;6190801;23;20184;-93
2022/08/21 13:45:35;;;;;;;1.50;1.37;;;18.40;99.90;;;;;;6192991;23;20180;-93
2022/08/21 13:48:07;;;;;;;2.00;1.50;;;18.40;99.90;;;;;;6191926;23;20578;-93
2022/08/21 13:50:39;;;;;;;1.53;1.30;;;18.40;99.90;;;;;;6190768;23;20174;-93
2022/08/21 13:53:30;;;;;;;1.30;1.20;;;18.40;99.90;;;;;;6190166;23;20228;-92
2022/08/21 13:56:02;;;;;;;2.23;1.47;;;18.40;99.90;;;;;;6191145;23;20192;-93
2022/08/21 13:58:35;;;;;;;1.63;1.40;;;18.40;99.90;;;;;;6190696;23;20251;-92
2022/08/21 14:01:06;;;;;;;1.60;1.50;;;18.30;99.90;;;;;;6191023;23;20177;-93
2022/08/21 14:03:43;;;;;;;1.60;1.50;;;18.40;99.90;;;;;;6190635;23;20177;-92
2022/08/21 14:06:18;;;;;;;1.60;1.50;;;18.40;99.90;;;;;;6190450;23;20689;-93
2022/08/21 14:08:55;;;;;;;2.43;1.80;;;18.40;99.90;;;;;;6190888;23;20201;-93
2022/08/21 14:11:30;;;;;;;2.27;1.73;;;18.50;99.90;;;;;;6189282;23;20184;-93
2022/08/21 14:14:08;;;;;;;1.73;1.40;;;18.50;99.90;;;;;;6189944;23;20756;-94
2022/08/21 14:16:47;;;;;;;2.80;1.37;;;18.50;99.90;;;;;;6190577;23;20193;-93
2022/08/21 14:19:25;;;;;;;2.10;1.90;;;18.50;99.90;;;;;;6191281;23;20181;-93
2022/08/21 14:21:58;;;;;;;1.40;1.30;;;18.50;99.90;;;;;;6191096;23;20184;-94
2022/08/21 14:24:32;;;;;;;2.03;1.50;;;18.50;99.90;;;;;;6190641;23;20252;-94
2022/08/21 14:27:08;;;;;;;1.67;1.50;;;18.70;99.90;;;;;;6190421;23;20196;-95
2022/08/21 14:29:43;;;;;;;3.47;1.60;;;18.60;99.90;;;;;;6190860;23;20181;-92
2022/08/21 14:32:17;;;;;;;1.50;1.40;;;18.60;99.90;;;;;;6190241;23;20176;-93
2022/08/21 14:34:55;;;;;;;1.73;1.40;;;18.60;99.90;;;;;;6191105;23;20173;-92
2022/08/21 14:37:28;;;;;;;1.93;1.50;;;18.70;99.90;;;;;;6190797;23;20256;-92
2022/08/21 14:40:01;;;;;;;1.40;1.30;;;18.80;99.90;;;;;;6189920;23;20196;-93
2022/08/21 14:42:33;;;;;;;1.70;1.60;;;19.00;99.90;;;;;;6188917;23;20596;-92
2022/08/21 14:45:14;;;;;;;2.17;1.40;;;18.90;99.90;;;;;;6190391;23;20179;-93
2022/08/21 14:47:50;;;;;;;1.77;1.33;;;19.00;99.90;;;;;;6192803;23;20284;-93
2022/08/21 14:50:22;;;;;;;1.87;1.50;;;19.00;99.90;;;;;;6190438;23;20173;-94